Holland, Ohio
Current Conditions -  °F | °C
As of 11:52 AM on Saturday 22 Nov 2014 (Local Time) from KTOL Reporting Station
Overcast Overcast  
Wind Chill: 35°   Ceiling: 2900
Heat Index: 41°   Visibility: 8mi
Dew Point: 37°   Wind: 10mph
Humidity: 86%   Direction: 220°SW
Pressure: 30.07"   Gusts: NA
Location:  41.62°N, 83.71°W
Report Text: KTOL 221652Z 22009KT 8SM OVC029 05/03 A3007 RMK AO2 RAE1554B37E46 SLP192 P0000 T00500028
Loading
Personal Weather Stations






























Interactive Weather Map New forecast layout! Learn more

10-Day Weather Forecast

Advertisements
Track Severe Weather on mobile